Time;durP1;ratioP1;P1;durP2;ratioP2;P2;SDS_P1;SDS_P2;PMS_P1;PMS_P2;Temp;Humidity;BMP_temperature;BMP_pressure;BME280_temperature;BME280_humidity;BME280_pressure;Samples;Min_cycle;Max_cycle;Signal;HPM_P1;HPM_P2
2021/12/17 00:05:04;;;;;;;26.63;4.03;;;5.40;99.90;;;;;;10373589;28;20397;-82
2021/12/17 00:10:30;;;;;;;18.00;3.77;;;5.30;99.90;;;;;;10365884;28;20242;-83
2021/12/17 00:15:52;;;;;;;22.97;4.70;;;5.30;99.90;;;;;;10364786;28;20232;-82
2021/12/17 00:55:52;;;;;;;18.83;4.33;;;4.90;99.90;;;;;;10390670;28;20227;-82
2021/12/17 01:01:19;;;;;;;18.57;4.60;;;4.90;99.90;;;;;;10385632;28;20208;-82
2021/12/17 01:06:43;;;;;;;32.90;4.93;;;4.80;99.90;;;;;;10391268;28;20439;-82
2021/12/17 01:12:08;;;;;;;22.33;4.47;;;4.80;99.90;;;;;;10371416;28;20192;-81
2021/12/17 01:18:18;;;;;;;21.90;4.53;;;4.70;99.90;;;;;;10402077;28;20267;-82
2021/12/17 01:36:00;;;;;;;20.67;3.87;;;4.50;99.90;;;;;;10329903;28;20531;-82
2021/12/17 01:41:58;;;;;;;23.53;4.50;;;4.40;99.90;;;;;;10366317;28;20289;-82
2021/12/17 01:47:20;;;;;;;30.63;5.77;;;4.30;99.90;;;;;;10370311;28;20376;-82
2021/12/17 02:04:34;;;;;;;17.43;3.63;;;4.20;99.90;;;;;;10370517;28;20276;-81
2021/12/17 02:32:39;;;;;;;16.63;4.10;;;4.00;99.90;;;;;;10368569;28;20550;-83
2021/12/17 02:38:03;;;;;;;25.67;4.80;;;4.00;99.90;;;;;;10368210;28;20221;-82
2021/12/17 02:49:47;;;;;;;21.20;3.93;;;4.00;99.90;;;;;;10386996;28;20338;-83
2021/12/17 02:55:13;;;;;;;20.43;3.17;;;3.90;99.90;;;;;;10371215;28;20223;-83
2021/12/17 03:00:41;;;;;;;15.23;4.20;;;3.90;99.90;;;;;;10367303;28;20520;-82
2021/12/17 03:06:04;;;;;;;19.20;3.63;;;3.90;99.90;;;;;;10367157;28;20531;-82
2021/12/17 03:11:45;;;;;;;16.77;3.50;;;3.80;99.90;;;;;;10375247;28;20201;-82
2021/12/17 03:17:11;;;;;;;13.57;2.53;;;3.80;99.90;;;;;;10369473;28;20284;-81
2021/12/17 03:28:41;;;;;;;18.57;3.77;;;3.80;99.90;;;;;;10344804;28;20209;-82
2021/12/17 03:34:17;;;;;;;13.00;3.17;;;3.80;99.90;;;;;;10335729;28;20300;-82
2021/12/17 03:40:01;;;;;;;21.27;3.97;;;3.80;99.90;;;;;;10385256;28;20254;-82
2021/12/17 03:45:31;;;;;;;24.57;4.53;;;3.70;99.90;;;;;;10366708;28;20284;-82
2021/12/17 03:51:20;;;;;;;21.93;4.23;;;3.70;99.90;;;;;;10385302;28;20212;-82
2021/12/17 03:56:43;;;;;;;15.27;4.67;;;3.70;99.90;;;;;;10368291;28;20257;-82
2021/12/17 04:02:08;;;;;;;16.53;4.23;;;3.70;99.90;;;;;;10352569;28;20206;-81
2021/12/17 04:07:41;;;;;;;16.57;3.07;;;3.70;99.90;;;;;;10314584;28;20278;-82
2021/12/17 04:13:31;;;;;;;16.43;3.93;;;3.70;99.90;;;;;;10338100;28;20207;-82
2021/12/17 04:19:16;;;;;;;14.97;3.10;;;3.70;99.90;;;;;;10344382;28;20230;-81
2021/12/17 04:24:58;;;;;;;16.27;3.27;;;3.60;99.90;;;;;;10363316;28;20222;-82
2021/12/17 04:30:24;;;;;;;19.03;4.00;;;3.60;99.90;;;;;;10368313;28;20233;-83
2021/12/17 04:36:08;;;;;;;16.47;3.80;;;3.60;99.90;;;;;;10372563;28;20264;-82
2021/12/17 04:58:18;;;;;;;20.60;4.07;;;3.50;99.90;;;;;;10364191;28;20225;-81
2021/12/17 05:03:42;;;;;;;15.77;3.03;;;3.50;99.90;;;;;;10366996;28;20195;-83
2021/12/17 05:09:35;;;;;;;15.23;3.90;;;3.50;99.90;;;;;;10390765;28;20207;-82
2021/12/17 05:20:51;;;;;;;15.63;4.17;;;3.40;99.90;;;;;;10371734;28;20431;-82
2021/12/17 05:26:15;;;;;;;13.50;3.30;;;3.40;99.90;;;;;;10369804;28;20207;-82
2021/12/17 05:31:45;;;;;;;13.07;4.27;;;3.40;99.90;;;;;;10371400;28;20517;-82
2021/12/17 05:37:12;;;;;;;16.87;4.53;;;3.30;99.90;;;;;;10377421;28;20252;-82
2021/12/17 05:42:42;;;;;;;19.37;3.87;;;3.20;99.90;;;;;;10359113;28;20257;-82
2021/12/17 05:48:16;;;;;;;17.57;3.43;;;3.30;99.90;;;;;;10357929;28;20211;-83
2021/12/17 05:53:42;;;;;;;18.93;3.93;;;3.20;99.90;;;;;;10370597;28;20423;-82
2021/12/17 05:59:09;;;;;;;11.10;2.50;;;3.20;99.90;;;;;;10370260;28;20206;-82
2021/12/17 06:04:50;;;;;;;16.00;3.50;;;3.10;99.90;;;;;;10377600;28;20208;-82
2021/12/17 06:10:16;;;;;;;15.97;4.00;;;3.10;99.90;;;;;;10369820;28;20205;-82
2021/12/17 06:15:41;;;;;;;20.47;4.73;;;3.10;99.90;;;;;;10369168;28;20230;-82
2021/12/17 06:21:22;;;;;;;16.83;4.43;;;3.10;99.90;;;;;;10390779;28;20213;-83
2021/12/17 06:26:48;;;;;;;14.07;4.47;;;3.20;99.90;;;;;;10317830;28;20200;-82
2021/12/17 06:32:17;;;;;;;29.33;5.20;;;3.10;99.90;;;;;;10359596;28;20212;-82
2021/12/17 06:37:59;;;;;;;21.90;5.63;;;3.10;99.90;;;;;;10376478;28;20237;-82
2021/12/17 06:43:45;;;;;;;14.47;4.57;;;3.10;99.90;;;;;;10376655;28;20567;-82
2021/12/17 07:42:36;;;;;;;50.17;20.00;;;2.90;99.90;;;;;;10196579;29;20638;-82
2021/12/17 07:48:18;;;;;;;20.10;7.60;;;3.00;99.90;;;;;;10242718;29;20207;-82
2021/12/17 07:53:58;;;;;;;32.67;15.07;;;3.00;99.90;;;;;;10242377;29;20498;-82
2021/12/17 07:59:21;;;;;;;66.17;24.30;;;3.10;99.90;;;;;;10288569;28;20233;-83
2021/12/17 08:04:44;;;;;;;24.53;9.57;;;3.10;99.90;;;;;;10281433;28;20202;-82
2021/12/17 08:10:12;;;;;;;32.57;10.67;;;3.20;99.90;;;;;;10283112;28;20281;-82
2021/12/17 08:15:43;;;;;;;23.87;10.40;;;3.30;99.90;;;;;;10317127;28;20230;-82
2021/12/17 08:32:32;;;;;;;23.70;7.70;;;3.60;99.90;;;;;;10360061;28;20253;-87
2021/12/17 08:37:58;;;;;;;21.87;7.63;;;3.80;99.90;;;;;;10349279;28;20238;-89
2021/12/17 08:43:22;;;;;;;20.73;7.90;;;4.10;99.90;;;;;;10371188;28;20238;-85
2021/12/17 08:48:48;;;;;;;29.70;9.73;;;4.20;99.90;;;;;;10385084;28;20195;-82
2021/12/17 08:54:30;;;;;;;17.77;7.87;;;4.40;99.90;;;;;;10381649;28;20199;-87
2021/12/17 08:59:55;;;;;;;22.37;7.50;;;4.40;99.90;;;;;;10352598;28;20207;-88
2021/12/17 09:05:37;;;;;;;20.53;7.03;;;4.50;99.90;;;;;;10367837;28;20215;-89
2021/12/17 09:11:04;;;;;;;34.23;11.27;;;4.60;99.90;;;;;;10368314;28;20492;-84
2021/12/17 09:16:53;;;;;;;20.63;6.87;;;4.60;99.90;;;;;;10406708;28;20231;-83
2021/12/17 09:22:18;;;;;;;17.73;5.77;;;4.50;99.90;;;;;;10394940;28;20257;-84
2021/12/17 09:27:45;;;;;;;12.90;4.87;;;4.60;99.90;;;;;;10354367;28;20263;-87
2021/12/17 09:33:30;;;;;;;14.90;5.13;;;4.60;99.90;;;;;;10386148;28;20261;-83
2021/12/17 09:38:53;;;;;;;17.90;4.83;;;4.70;99.90;;;;;;10366386;28;20276;-86
2021/12/17 09:44:18;;;;;;;12.50;3.53;;;4.70;99.90;;;;;;10368636;28;20242;-82
2021/12/17 09:49:40;;;;;;;12.97;4.17;;;4.70;99.90;;;;;;10364601;28;20444;-84
2021/12/17 09:55:06;;;;;;;19.00;8.07;;;4.80;99.90;;;;;;10365796;28;20219;-81
2021/12/17 10:00:28;;;;;;;9.63;3.53;;;4.80;99.90;;;;;;10358778;28;20202;-83
2021/12/17 10:05:53;;;;;;;10.20;3.90;;;4.90;99.90;;;;;;10364958;28;20234;-82
2021/12/17 10:11:18;;;;;;;14.73;5.67;;;4.90;99.90;;;;;;10366932;28;20196;-87
2021/12/17 10:16:40;;;;;;;9.80;2.70;;;5.00;99.90;;;;;;10402732;28;20237;-83
2021/12/17 10:22:12;;;;;;;12.93;3.20;;;5.00;99.90;;;;;;10381074;28;20208;-86
2021/12/17 10:27:37;;;;;;;6.77;2.20;;;5.10;99.90;;;;;;10334421;28;20199;-83
2021/12/17 10:33:02;;;;;;;8.70;2.77;;;5.00;99.90;;;;;;10338969;28;20203;-83
2021/12/17 10:38:26;;;;;;;8.27;2.50;;;5.10;99.90;;;;;;10360280;28;20235;-83
2021/12/17 10:43:55;;;;;;;17.80;5.27;;;5.10;99.90;;;;;;10371579;28;20268;-81
2021/12/17 10:49:23;;;;;;;14.83;5.20;;;5.30;99.90;;;;;;10363726;28;20204;-83
2021/12/17 10:54:45;;;;;;;8.30;2.47;;;5.30;99.90;;;;;;10325385;28;20222;-85
2021/12/17 11:00:09;;;;;;;15.03;6.33;;;5.30;99.90;;;;;;10389221;28;20187;-84
2021/12/17 11:05:35;;;;;;;17.53;6.83;;;5.40;99.90;;;;;;10356645;28;20274;-81
2021/12/17 11:11:12;;;;;;;11.37;4.10;;;5.60;99.90;;;;;;10375069;28;20552;-82
2021/12/17 11:16:37;;;;;;;11.57;4.53;;;6.20;99.90;;;;;;10325323;28;20296;-83
2021/12/17 11:22:01;;;;;;;8.97;4.27;;;6.80;99.90;;;;;;10355878;28;20198;-82
2021/12/17 11:27:23;;;;;;;11.60;4.40;;;7.10;99.90;;;;;;10391497;28;20245;-83
2021/12/17 11:32:49;;;;;;;8.23;3.53;;;7.00;99.90;;;;;;10346529;28;20389;-82
2021/12/17 11:38:34;;;;;;;11.07;3.83;;;6.80;99.90;;;;;;10345200;28;20236;-84
2021/12/17 11:44:08;;;;;;;8.10;2.07;;;6.60;99.90;;;;;;10368131;28;20263;-93
2021/12/17 11:49:53;;;;;;;10.20;3.67;;;6.60;99.90;;;;;;10346001;28;20211;-81
2021/12/17 11:55:23;;;;;;;25.97;8.60;;;6.40;99.90;;;;;;10391039;28;20643;-85
2021/12/17 12:00:44;;;;;;;21.63;9.10;;;6.40;99.90;;;;;;10360142;28;20249;-83
2021/12/17 12:06:35;;;;;;;139.80;66.43;;;6.50;99.90;;;;;;10360743;28;20209;-83
2021/12/17 12:12:10;;;;;;;19.73;8.80;;;6.40;99.90;;;;;;10376188;28;20206;-89
2021/12/17 12:17:57;;;;;;;10.37;3.83;;;6.20;99.90;;;;;;10346820;28;20318;-84
2021/12/17 12:23:31;;;;;;;19.97;8.30;;;6.10;99.90;;;;;;10358140;28;20237;-81
2021/12/17 12:28:54;;;;;;;13.70;5.60;;;6.00;99.90;;;;;;10350516;28;20200;-85
2021/12/17 12:34:33;;;;;;;13.93;4.17;;;6.00;99.90;;;;;;10403931;28;20222;-86
2021/12/17 12:39:58;;;;;;;9.03;2.73;;;5.90;99.90;;;;;;10319078;28;20288;-83
2021/12/17 12:45:20;;;;;;;8.57;3.87;;;5.90;99.90;;;;;;10357959;28;20239;-82
2021/12/17 12:50:45;;;;;;;7.73;3.37;;;5.90;99.90;;;;;;10359486;28;20526;-82
2021/12/17 12:56:15;;;;;;;8.03;2.77;;;5.80;99.90;;;;;;10342322;28;20262;-81
2021/12/17 13:01:36;;;;;;;12.77;2.57;;;5.80;99.90;;;;;;10359910;28;20251;-81
2021/12/17 13:06:59;;;;;;;11.00;2.37;;;5.80;99.90;;;;;;10358440;28;20250;-80
2021/12/17 13:12:24;;;;;;;20.47;6.37;;;5.60;99.90;;;;;;10358782;28;20396;-80
2021/12/17 13:24:05;;;;;;;10.17;3.87;;;5.40;99.90;;;;;;10369436;28;20219;-82
2021/12/17 13:29:38;;;;;;;10.20;3.57;;;5.30;99.90;;;;;;10351898;28;20542;-82
2021/12/17 13:35:00;;;;;;;6.90;2.90;;;5.30;99.90;;;;;;10616879;22;20237;-82
2021/12/17 13:40:25;;;;;;;13.80;4.17;;;5.20;99.90;;;;;;10446868;28;20209;-82
2021/12/17 13:45:47;;;;;;;7.07;2.87;;;5.20;99.90;;;;;;10447438;28;20260;-84
2021/12/17 13:51:13;;;;;;;8.77;3.40;;;5.00;99.90;;;;;;10405343;28;20378;-85
2021/12/17 13:56:35;;;;;;;14.13;5.37;;;4.90;99.90;;;;;;10426090;28;20241;-82
2021/12/17 14:01:57;;;;;;;14.87;4.83;;;4.80;99.90;;;;;;10433909;28;20240;-81
2021/12/17 14:07:30;;;;;;;33.27;11.17;;;4.80;99.90;;;;;;10434735;28;20575;-83
2021/12/17 14:12:52;;;;;;;30.33;11.90;;;4.70;99.90;;;;;;10446390;28;20516;-85
2021/12/17 14:18:35;;;;;;;27.60;11.30;;;4.70;99.90;;;;;;10445832;28;20320;-83
2021/12/17 14:23:57;;;;;;;36.30;13.87;;;4.70;99.90;;;;;;10416359;28;20553;-83
2021/12/17 14:29:19;;;;;;;22.20;9.17;;;4.50;99.90;;;;;;10413171;28;20197;-82
2021/12/17 14:34:41;;;;;;;18.80;8.20;;;4.50;99.90;;;;;;10425982;28;20242;-83
2021/12/17 14:40:04;;;;;;;18.83;6.47;;;4.40;99.90;;;;;;10459108;28;20229;-89
2021/12/17 14:45:41;;;;;;;29.63;12.57;;;4.40;99.90;;;;;;10430881;28;20276;-93
2021/12/17 15:02:56;;;;;;;16.67;6.13;;;4.30;99.90;;;;;;10459034;28;20466;-83
2021/12/17 15:08:19;;;;;;;11.40;5.13;;;4.30;99.90;;;;;;10440670;28;20229;-82
2021/12/17 15:13:42;;;;;;;23.57;8.37;;;4.40;99.90;;;;;;10459784;28;20216;-84
2021/12/17 15:19:04;;;;;;;16.60;6.43;;;4.40;99.90;;;;;;10449728;28;20230;-82
2021/12/17 15:24:28;;;;;;;14.33;4.70;;;4.40;99.90;;;;;;10448559;28;20186;-83
2021/12/17 15:29:50;;;;;;;13.10;4.10;;;4.50;99.90;;;;;;10485116;28;20200;-83
2021/12/17 15:35:17;;;;;;;12.20;5.10;;;4.50;99.90;;;;;;10455535;28;20270;-81
2021/12/17 15:40:42;;;;;;;17.00;6.80;;;4.30;99.90;;;;;;10457709;28;21126;-80
2021/12/17 15:46:05;;;;;;;12.47;4.23;;;4.30;99.90;;;;;;10446572;28;20193;-82
2021/12/17 15:51:27;;;;;;;22.13;7.57;;;4.20;99.90;;;;;;10439946;28;20257;-80
2021/12/17 15:56:50;;;;;;;34.10;16.30;;;4.20;99.90;;;;;;10451287;28;20232;-82
2021/12/17 16:02:12;;;;;;;48.90;22.73;;;4.00;99.90;;;;;;10448593;28;20207;-80
2021/12/17 16:07:36;;;;;;;56.83;28.53;;;3.90;99.90;;;;;;10450405;28;20200;-89
2021/12/17 16:24:01;;;;;;;23.17;10.87;;;3.80;99.90;;;;;;10407454;28;20535;-80
2021/12/17 16:29:24;;;;;;;22.00;10.20;;;3.80;99.90;;;;;;10407933;28;20222;-81
2021/12/17 16:34:46;;;;;;;24.70;9.73;;;3.70;99.90;;;;;;10410507;28;20280;-79
2021/12/17 16:40:08;;;;;;;45.33;17.03;;;3.70;99.90;;;;;;10441133;28;20247;-81
2021/12/17 16:45:39;;;;;;;47.07;14.97;;;3.60;99.90;;;;;;10464321;28;20201;-81
2021/12/17 16:51:01;;;;;;;44.43;17.20;;;3.50;99.90;;;;;;10433892;28;20206;-79
2021/12/17 16:56:24;;;;;;;30.83;11.23;;;3.40;99.90;;;;;;10448989;28;20221;-78
2021/12/17 17:01:46;;;;;;;29.63;12.40;;;;;;;;;;10457263;28;20193;-80
2021/12/17 17:07:09;;;;;;;30.77;14.83;;;3.30;99.90;;;;;;10445031;28;20200;-79
2021/12/17 17:12:34;;;;;;;30.93;13.53;;;3.30;99.90;;;;;;10446367;28;20200;-78
2021/12/17 17:17:56;;;;;;;29.23;11.60;;;3.20;99.90;;;;;;10475755;28;20281;-80
2021/12/17 17:23:19;;;;;;;24.20;9.23;;;3.10;99.90;;;;;;10460513;28;20365;-81
2021/12/17 17:28:43;;;;;;;21.07;8.03;;;3.10;99.90;;;;;;10457568;28;20196;-77
2021/12/17 17:34:09;;;;;;;22.47;7.27;;;3.10;99.90;;;;;;10442605;28;20234;-80
2021/12/17 17:39:31;;;;;;;16.87;7.10;;;3.10;99.90;;;;;;10429992;28;20425;-79
2021/12/17 17:44:54;;;;;;;15.50;6.23;;;3.10;99.90;;;;;;10428320;28;20204;-79
2021/12/17 17:50:16;;;;;;;17.87;5.60;;;3.10;99.90;;;;;;10440148;28;20200;-78
2021/12/17 17:55:41;;;;;;;13.80;5.40;;;3.00;99.90;;;;;;10457389;28;20268;-80
2021/12/17 18:01:05;;;;;;;20.83;7.30;;;3.10;99.90;;;;;;10455702;28;20201;-78
2021/12/17 18:06:30;;;;;;;17.30;5.33;;;3.00;99.90;;;;;;10456491;28;20196;-78
2021/12/17 18:11:53;;;;;;;10.73;4.90;;;3.00;99.90;;;;;;10456165;28;20204;-80
2021/12/17 18:17:16;;;;;;;20.63;6.63;;;3.00;99.90;;;;;;10444716;28;20231;-80
2021/12/17 18:22:38;;;;;;;13.53;4.90;;;3.00;99.90;;;;;;10427386;28;20605;-81
2021/12/17 18:28:00;;;;;;;17.50;6.13;;;2.90;99.90;;;;;;10416432;28;20208;-80
2021/12/17 18:33:22;;;;;;;17.60;5.50;;;3.00;99.90;;;;;;10428347;28;20197;-79
2021/12/17 18:38:44;;;;;;;12.23;5.07;;;2.90;99.90;;;;;;10461333;28;20249;-81
2021/12/17 18:44:09;;;;;;;22.10;7.07;;;2.90;99.90;;;;;;10471978;28;20194;-80
2021/12/17 18:49:32;;;;;;;14.77;6.83;;;2.90;99.90;;;;;;10471459;28;20497;-80
2021/12/17 18:54:54;;;;;;;20.93;8.37;;;2.90;99.90;;;;;;10468012;28;20247;-80
2021/12/17 19:00:16;;;;;;;21.10;7.07;;;2.90;99.90;;;;;;10430537;28;20586;-80
2021/12/17 19:05:41;;;;;;;20.23;8.87;;;2.90;99.90;;;;;;10398737;28;20494;-80
2021/12/17 19:11:04;;;;;;;23.53;8.77;;;2.90;99.90;;;;;;10411555;28;20234;-78
2021/12/17 19:16:27;;;;;;;22.33;9.90;;;2.90;99.90;;;;;;10429128;28;20264;-80
2021/12/17 19:22:03;;;;;;;24.60;10.50;;;2.80;99.90;;;;;;10454399;28;20203;-80
2021/12/17 19:27:25;;;;;;;37.40;12.57;;;2.80;99.90;;;;;;10440078;28;20342;-79
2021/12/17 19:32:48;;;;;;;21.93;8.97;;;2.80;99.90;;;;;;10465013;28;20189;-78
2021/12/17 19:38:10;;;;;;;18.03;6.93;;;2.80;99.90;;;;;;10450551;28;20248;-78
2021/12/17 19:43:32;;;;;;;22.80;10.40;;;2.80;99.90;;;;;;10447761;28;20202;-78
2021/12/17 19:54:34;;;;;;;23.13;10.20;;;2.80;99.90;;;;;;10447514;28;20201;-78
2021/12/17 20:00:03;;;;;;;30.80;10.50;;;2.70;99.90;;;;;;10419893;28;20220;-78
2021/12/17 20:05:33;;;;;;;30.70;11.47;;;2.70;99.90;;;;;;10407095;28;20208;-79
2021/12/17 20:10:55;;;;;;;28.87;11.63;;;2.60;99.90;;;;;;10422731;28;20301;-79
2021/12/17 20:16:19;;;;;;;28.20;10.40;;;2.60;99.90;;;;;;10423374;28;20532;-78
2021/12/17 20:21:41;;;;;;;30.53;10.17;;;2.60;99.90;;;;;;10473940;28;20548;-79
2021/12/17 20:27:04;;;;;;;26.53;9.97;;;2.60;99.90;;;;;;10463358;28;20245;-78
2021/12/17 20:32:27;;;;;;;28.50;11.70;;;2.60;99.90;;;;;;10446640;28;20191;-78
2021/12/17 20:37:49;;;;;;;76.57;33.77;;;2.50;99.90;;;;;;10467814;28;20236;-78
2021/12/17 20:43:17;;;;;;;75.70;26.70;;;2.50;99.90;;;;;;10454612;28;20390;-78
2021/12/17 20:48:40;;;;;;;52.20;16.70;;;2.40;99.90;;;;;;10440676;28;20365;-78
2021/12/17 20:54:03;;;;;;;47.80;14.13;;;2.40;99.90;;;;;;10454314;28;20251;-78
2021/12/17 20:59:25;;;;;;;46.37;13.90;;;2.40;99.90;;;;;;10467883;28;20243;-79
2021/12/17 21:04:47;;;;;;;38.20;10.20;;;2.40;99.90;;;;;;10454001;28;20196;-78
2021/12/17 21:10:11;;;;;;;95.17;30.43;;;2.40;99.90;;;;;;10453438;28;20408;-78
2021/12/17 21:15:40;;;;;;;82.53;33.20;;;2.30;99.90;;;;;;10470212;28;20188;-78
2021/12/17 21:21:02;;;;;;;79.80;34.47;;;2.20;99.90;;;;;;10446331;28;20525;-78
2021/12/17 21:26:25;;;;;;;65.90;28.20;;;2.20;99.90;;;;;;10455944;28;20198;-79
2021/12/17 21:31:50;;;;;;;75.97;35.13;;;2.20;99.90;;;;;;10466227;28;20224;-79
2021/12/17 21:37:13;;;;;;;44.37;20.43;;;2.20;99.90;;;;;;10451987;28;20252;-79
2021/12/17 21:42:36;;;;;;;27.23;14.43;;;2.10;99.90;;;;;;10452521;28;20195;-80
2021/12/17 21:47:58;;;;;;;35.03;16.10;;;2.10;99.90;;;;;;10450717;28;20435;-78
2021/12/17 21:53:20;;;;;;;30.53;14.03;;;2.10;99.90;;;;;;10468672;28;20197;-80
2021/12/17 21:58:43;;;;;;;17.93;8.03;;;2.00;99.90;;;;;;10454523;28;20224;-79
2021/12/17 22:04:11;;;;;;;17.90;9.40;;;2.00;99.90;;;;;;10465057;28;20202;-80
2021/12/17 22:09:36;;;;;;;16.53;7.30;;;2.00;99.90;;;;;;10451276;28;20192;-80
2021/12/17 22:14:59;;;;;;;14.20;7.07;;;2.00;99.90;;;;;;10450877;28;20222;-79
2021/12/17 22:20:32;;;;;;;14.83;7.03;;;2.00;99.90;;;;;;10450505;28;20227;-78
2021/12/17 22:25:56;;;;;;;14.20;6.70;;;2.10;99.90;;;;;;10436905;28;20223;-78
2021/12/17 22:31:18;;;;;;;25.97;10.23;;;2.20;99.90;;;;;;10450204;28;20195;-78
2021/12/17 22:36:40;;;;;;;25.37;10.77;;;2.20;99.90;;;;;;10449355;28;20239;-79
2021/12/17 22:42:04;;;;;;;16.23;9.90;;;2.30;99.90;;;;;;10408897;28;20246;-77
2021/12/17 22:47:26;;;;;;;14.93;8.77;;;2.30;99.90;;;;;;10432778;28;20268;-78
2021/12/17 22:52:48;;;;;;;16.87;9.63;;;2.30;99.90;;;;;;10449973;28;20221;-79
2021/12/17 22:58:10;;;;;;;15.37;7.90;;;2.40;99.90;;;;;;10435401;28;20246;-78
2021/12/17 23:03:37;;;;;;;19.23;8.27;;;2.50;99.90;;;;;;10435675;28;20504;-79
2021/12/17 23:14:31;;;;;;;14.97;7.83;;;2.60;99.90;;;;;;10462553;28;20193;-79
2021/12/17 23:19:53;;;;;;;12.00;7.00;;;2.60;99.90;;;;;;10445743;28;20228;-78
2021/12/17 23:25:16;;;;;;;12.60;7.77;;;2.60;99.90;;;;;;10480115;28;20201;-78
2021/12/17 23:30:38;;;;;;;12.30;7.43;;;2.70;99.90;;;;;;10465142;28;20206;-78
2021/12/17 23:36:07;;;;;;;10.73;6.53;;;2.70;99.90;;;;;;10464192;28;20236;-80
2021/12/17 23:41:30;;;;;;;17.20;7.50;;;2.70;99.90;;;;;;10450564;28;20224;-78
2021/12/17 23:46:52;;;;;;;14.83;7.37;;;2.70;99.90;;;;;;10447236;28;20419;-78
2021/12/17 23:52:16;;;;;;;8.30;5.20;;;2.70;99.90;;;;;;10447527;28;20212;-78
2021/12/17 23:57:38;;;;;;;8.23;4.57;;;2.70;99.90;;;;;;10447396;28;20454;-79
